sensor_id;sensor_type;location;lat;lon;timestamp;P1;durP1;ratioP1;P2;durP2;ratioP2
17494;SDS011;8864;51.970;4.614;2023-01-15T00:02:04;3.20;;;0.93;;
17494;SDS011;8864;51.970;4.614;2023-01-15T00:04:31;6.05;;;0.80;;
17494;SDS011;8864;51.970;4.614;2023-01-15T00:06:59;6.30;;;1.08;;
17494;SDS011;8864;51.970;4.614;2023-01-15T00:09:28;2.78;;;0.77;;
17494;SDS011;8864;51.970;4.614;2023-01-15T00:12:03;5.57;;;1.10;;
17494;SDS011;8864;51.970;4.614;2023-01-15T00:14:31;2.25;;;0.80;;
17494;SDS011;8864;51.970;4.614;2023-01-15T00:16:58;2.38;;;0.70;;
17494;SDS011;8864;51.970;4.614;2023-01-15T00:19:26;2.38;;;0.98;;
17494;SDS011;8864;51.970;4.614;2023-01-15T00:21:53;4.30;;;0.90;;
17494;SDS011;8864;51.970;4.614;2023-01-15T00:24:21;3.15;;;0.90;;
17494;SDS011;8864;51.970;4.614;2023-01-15T00:27:05;4.55;;;1.15;;
17494;SDS011;8864;51.970;4.614;2023-01-15T00:29:57;4.15;;;0.98;;
17494;SDS011;8864;51.970;4.614;2023-01-15T00:32:23;5.82;;;1.35;;
17494;SDS011;8864;51.970;4.614;2023-01-15T00:34:55;4.38;;;1.00;;
17494;SDS011;8864;51.970;4.614;2023-01-15T00:37:24;4.28;;;0.95;;
17494;SDS011;8864;51.970;4.614;2023-01-15T00:39:51;5.38;;;1.00;;
17494;SDS011;8864;51.970;4.614;2023-01-15T00:42:19;6.00;;;1.52;;
17494;SDS011;8864;51.970;4.614;2023-01-15T00:44:47;1.80;;;0.65;;
17494;SDS011;8864;51.970;4.614;2023-01-15T00:47:15;2.58;;;0.80;;
17494;SDS011;8864;51.970;4.614;2023-01-15T00:49:42;2.25;;;0.70;;
17494;SDS011;8864;51.970;4.614;2023-01-15T00:52:11;6.75;;;1.23;;
17494;SDS011;8864;51.970;4.614;2023-01-15T00:54:41;2.80;;;0.95;;
17494;SDS011;8864;51.970;4.614;2023-01-15T00:57:08;3.60;;;0.93;;
17494;SDS011;8864;51.970;4.614;2023-01-15T00:59:42;2.55;;;0.88;;
17494;SDS011;8864;51.970;4.614;2023-01-15T01:02:12;3.10;;;0.77;;
17494;SDS011;8864;51.970;4.614;2023-01-15T01:04:40;5.45;;;1.00;;
17494;SDS011;8864;51.970;4.614;2023-01-15T01:07:07;2.40;;;0.77;;
17494;SDS011;8864;51.970;4.614;2023-01-15T01:09:38;1.60;;;0.90;;
17494;SDS011;8864;51.970;4.614;2023-01-15T01:12:05;3.53;;;0.80;;
17494;SDS011;8864;51.970;4.614;2023-01-15T01:14:33;5.47;;;0.90;;
17494;SDS011;8864;51.970;4.614;2023-01-15T01:17:00;4.68;;;0.98;;
17494;SDS011;8864;51.970;4.614;2023-01-15T01:19:33;6.57;;;0.98;;
17494;SDS011;8864;51.970;4.614;2023-01-15T01:22:02;1.50;;;0.75;;
17494;SDS011;8864;51.970;4.614;2023-01-15T01:24:30;3.35;;;0.90;;
17494;SDS011;8864;51.970;4.614;2023-01-15T01:26:58;5.65;;;0.70;;
17494;SDS011;8864;51.970;4.614;2023-01-15T01:29:25;2.47;;;0.70;;
17494;SDS011;8864;51.970;4.614;2023-01-15T01:31:52;3.13;;;0.80;;
17494;SDS011;8864;51.970;4.614;2023-01-15T01:34:19;5.13;;;1.08;;
17494;SDS011;8864;51.970;4.614;2023-01-15T01:36:46;5.38;;;1.00;;
17494;SDS011;8864;51.970;4.614;2023-01-15T01:39:14;2.38;;;0.82;;
17494;SDS011;8864;51.970;4.614;2023-01-15T01:41:45;3.08;;;0.90;;
17494;SDS011;8864;51.970;4.614;2023-01-15T01:47:19;3.20;;;0.90;;
17494;SDS011;8864;51.970;4.614;2023-01-15T01:49:48;1.77;;;0.60;;
17494;SDS011;8864;51.970;4.614;2023-01-15T01:52:20;1.80;;;0.73;;
17494;SDS011;8864;51.970;4.614;2023-01-15T01:54:51;4.13;;;1.13;;
17494;SDS011;8864;51.970;4.614;2023-01-15T01:57:21;1.73;;;0.70;;
17494;SDS011;8864;51.970;4.614;2023-01-15T01:59:49;2.83;;;0.82;;
17494;SDS011;8864;51.970;4.614;2023-01-15T02:02:19;4.13;;;1.05;;
17494;SDS011;8864;51.970;4.614;2023-01-15T02:04:50;4.82;;;0.70;;
17494;SDS011;8864;51.970;4.614;2023-01-15T02:07:19;3.88;;;1.17;;
17494;SDS011;8864;51.970;4.614;2023-01-15T02:09:46;1.70;;;0.73;;
17494;SDS011;8864;51.970;4.614;2023-01-15T02:12:18;3.20;;;0.82;;
17494;SDS011;8864;51.970;4.614;2023-01-15T02:14:53;3.88;;;0.77;;
17494;SDS011;8864;51.970;4.614;2023-01-15T02:17:35;3.50;;;0.80;;
17494;SDS011;8864;51.970;4.614;2023-01-15T02:20:15;4.35;;;1.00;;
17494;SDS011;8864;51.970;4.614;2023-01-15T02:25:56;3.53;;;0.90;;
17494;SDS011;8864;51.970;4.614;2023-01-15T02:28:38;3.47;;;1.00;;
17494;SDS011;8864;51.970;4.614;2023-01-15T02:31:11;2.92;;;0.77;;
17494;SDS011;8864;51.970;4.614;2023-01-15T02:33:43;4.75;;;1.20;;
17494;SDS011;8864;51.970;4.614;2023-01-15T02:36:17;1.35;;;0.60;;
17494;SDS011;8864;51.970;4.614;2023-01-15T02:38:48;3.22;;;1.05;;
17494;SDS011;8864;51.970;4.614;2023-01-15T02:41:21;2.78;;;0.80;;
17494;SDS011;8864;51.970;4.614;2023-01-15T02:43:53;3.17;;;0.82;;
17494;SDS011;8864;51.970;4.614;2023-01-15T02:46:23;3.35;;;0.80;;
17494;SDS011;8864;51.970;4.614;2023-01-15T02:48:55;2.42;;;0.80;;
17494;SDS011;8864;51.970;4.614;2023-01-15T02:51:26;4.35;;;1.00;;
17494;SDS011;8864;51.970;4.614;2023-01-15T02:53:59;1.92;;;0.68;;
17494;SDS011;8864;51.970;4.614;2023-01-15T02:56:30;3.22;;;0.70;;
17494;SDS011;8864;51.970;4.614;2023-01-15T02:59:04;3.20;;;0.70;;
17494;SDS011;8864;51.970;4.614;2023-01-15T03:01:39;3.13;;;0.80;;
17494;SDS011;8864;51.970;4.614;2023-01-15T03:04:12;3.90;;;0.90;;
17494;SDS011;8864;51.970;4.614;2023-01-15T03:06:42;3.25;;;0.65;;
17494;SDS011;8864;51.970;4.614;2023-01-15T03:09:16;1.10;;;0.70;;
17494;SDS011;8864;51.970;4.614;2023-01-15T03:11:46;3.28;;;0.68;;
17494;SDS011;8864;51.970;4.614;2023-01-15T03:14:25;3.92;;;0.75;;
17494;SDS011;8864;51.970;4.614;2023-01-15T03:17:00;3.53;;;0.90;;
17494;SDS011;8864;51.970;4.614;2023-01-15T03:19:35;4.28;;;0.93;;
17494;SDS011;8864;51.970;4.614;2023-01-15T03:22:10;3.63;;;0.95;;
17494;SDS011;8864;51.970;4.614;2023-01-15T03:24:46;2.28;;;0.90;;
17494;SDS011;8864;51.970;4.614;2023-01-15T03:27:15;3.20;;;0.90;;
17494;SDS011;8864;51.970;4.614;2023-01-15T03:29:46;3.45;;;0.77;;
17494;SDS011;8864;51.970;4.614;2023-01-15T03:32:14;3.35;;;0.68;;
17494;SDS011;8864;51.970;4.614;2023-01-15T03:34:43;2.20;;;0.70;;
17494;SDS011;8864;51.970;4.614;2023-01-15T03:37:13;5.43;;;1.00;;
17494;SDS011;8864;51.970;4.614;2023-01-15T03:39:43;1.58;;;0.57;;
17494;SDS011;8864;51.970;4.614;2023-01-15T03:42:14;1.92;;;0.70;;
17494;SDS011;8864;51.970;4.614;2023-01-15T03:44:54;3.88;;;0.82;;
17494;SDS011;8864;51.970;4.614;2023-01-15T03:47:29;3.45;;;0.90;;
17494;SDS011;8864;51.970;4.614;2023-01-15T03:50:07;2.65;;;0.68;;
17494;SDS011;8864;51.970;4.614;2023-01-15T03:52:44;1.70;;;0.70;;
17494;SDS011;8864;51.970;4.614;2023-01-15T03:55:19;2.55;;;0.60;;
17494;SDS011;8864;51.970;4.614;2023-01-15T03:57:53;1.85;;;0.80;;
17494;SDS011;8864;51.970;4.614;2023-01-15T04:00:29;3.05;;;0.80;;
17494;SDS011;8864;51.970;4.614;2023-01-15T04:03:01;1.88;;;0.60;;
17494;SDS011;8864;51.970;4.614;2023-01-15T04:05:33;6.03;;;0.80;;
17494;SDS011;8864;51.970;4.614;2023-01-15T04:08:05;3.22;;;0.77;;
17494;SDS011;8864;51.970;4.614;2023-01-15T04:10:33;2.10;;;0.77;;
17494;SDS011;8864;51.970;4.614;2023-01-15T04:13:05;7.50;;;1.00;;
17494;SDS011;8864;51.970;4.614;2023-01-15T04:15:38;2.90;;;0.73;;
17494;SDS011;8864;51.970;4.614;2023-01-15T04:18:08;4.07;;;0.80;;
17494;SDS011;8864;51.970;4.614;2023-01-15T04:20:35;2.95;;;0.80;;
17494;SDS011;8864;51.970;4.614;2023-01-15T04:23:08;3.10;;;0.63;;
17494;SDS011;8864;51.970;4.614;2023-01-15T04:25:35;3.50;;;0.60;;
17494;SDS011;8864;51.970;4.614;2023-01-15T04:28:06;3.20;;;0.60;;
17494;SDS011;8864;51.970;4.614;2023-01-15T04:30:33;1.92;;;0.70;;
17494;SDS011;8864;51.970;4.614;2023-01-15T04:33:02;2.67;;;0.50;;
17494;SDS011;8864;51.970;4.614;2023-01-15T04:35:30;1.52;;;0.60;;
17494;SDS011;8864;51.970;4.614;2023-01-15T04:37:58;3.05;;;0.77;;
17494;SDS011;8864;51.970;4.614;2023-01-15T04:40:29;1.92;;;0.68;;
17494;SDS011;8864;51.970;4.614;2023-01-15T04:43:15;2.03;;;0.65;;
17494;SDS011;8864;51.970;4.614;2023-01-15T04:46:01;4.07;;;0.60;;
17494;SDS011;8864;51.970;4.614;2023-01-15T04:48:32;2.30;;;0.80;;
17494;SDS011;8864;51.970;4.614;2023-01-15T04:51:01;2.22;;;0.70;;
17494;SDS011;8864;51.970;4.614;2023-01-15T04:53:28;2.30;;;0.70;;
17494;SDS011;8864;51.970;4.614;2023-01-15T04:56:01;1.85;;;0.70;;
17494;SDS011;8864;51.970;4.614;2023-01-15T04:58:28;1.67;;;0.57;;
17494;SDS011;8864;51.970;4.614;2023-01-15T05:00:56;2.10;;;0.60;;
17494;SDS011;8864;51.970;4.614;2023-01-15T05:03:27;4.03;;;0.63;;
17494;SDS011;8864;51.970;4.614;2023-01-15T05:05:54;2.13;;;0.50;;
17494;SDS011;8864;51.970;4.614;2023-01-15T05:08:26;2.50;;;0.70;;
17494;SDS011;8864;51.970;4.614;2023-01-15T05:11:04;3.00;;;0.60;;
17494;SDS011;8864;51.970;4.614;2023-01-15T05:13:32;2.58;;;0.90;;
17494;SDS011;8864;51.970;4.614;2023-01-15T05:16:06;4.57;;;0.93;;
17494;SDS011;8864;51.970;4.614;2023-01-15T05:18:44;1.90;;;0.70;;
17494;SDS011;8864;51.970;4.614;2023-01-15T05:21:15;4.00;;;0.80;;
17494;SDS011;8864;51.970;4.614;2023-01-15T05:23:44;3.40;;;0.68;;
17494;SDS011;8864;51.970;4.614;2023-01-15T05:26:12;1.92;;;0.63;;
17494;SDS011;8864;51.970;4.614;2023-01-15T05:28:39;2.55;;;0.73;;
17494;SDS011;8864;51.970;4.614;2023-01-15T05:31:09;2.50;;;0.73;;
17494;SDS011;8864;51.970;4.614;2023-01-15T05:33:40;4.85;;;1.00;;
17494;SDS011;8864;51.970;4.614;2023-01-15T05:36:10;2.70;;;0.65;;
17494;SDS011;8864;51.970;4.614;2023-01-15T05:38:41;1.90;;;0.73;;
17494;SDS011;8864;51.970;4.614;2023-01-15T05:41:09;5.70;;;1.10;;
17494;SDS011;8864;51.970;4.614;2023-01-15T05:43:58;1.67;;;1.15;;
17494;SDS011;8864;51.970;4.614;2023-01-15T05:46:26;3.60;;;0.73;;
17494;SDS011;8864;51.970;4.614;2023-01-15T05:48:57;2.15;;;0.60;;
17494;SDS011;8864;51.970;4.614;2023-01-15T05:51:27;2.80;;;0.60;;
17494;SDS011;8864;51.970;4.614;2023-01-15T05:54:03;2.10;;;0.90;;
17494;SDS011;8864;51.970;4.614;2023-01-15T05:56:33;2.95;;;0.73;;
17494;SDS011;8864;51.970;4.614;2023-01-15T05:59:01;1.33;;;0.68;;
17494;SDS011;8864;51.970;4.614;2023-01-15T06:01:29;4.22;;;0.80;;
17494;SDS011;8864;51.970;4.614;2023-01-15T06:03:59;1.88;;;0.60;;
17494;SDS011;8864;51.970;4.614;2023-01-15T06:06:26;1.85;;;0.50;;
17494;SDS011;8864;51.970;4.614;2023-01-15T06:08:56;3.33;;;0.63;;
17494;SDS011;8864;51.970;4.614;2023-01-15T06:11:23;1.33;;;0.52;;
17494;SDS011;8864;51.970;4.614;2023-01-15T06:13:50;2.22;;;0.47;;
17494;SDS011;8864;51.970;4.614;2023-01-15T06:16:17;1.58;;;0.50;;
17494;SDS011;8864;51.970;4.614;2023-01-15T06:18:45;2.15;;;0.50;;
17494;SDS011;8864;51.970;4.614;2023-01-15T06:21:16;1.13;;;0.43;;
17494;SDS011;8864;51.970;4.614;2023-01-15T06:23:43;5.28;;;0.80;;
17494;SDS011;8864;51.970;4.614;2023-01-15T06:26:10;1.52;;;0.70;;
17494;SDS011;8864;51.970;4.614;2023-01-15T06:28:39;1.30;;;0.60;;
17494;SDS011;8864;51.970;4.614;2023-01-15T06:31:07;1.17;;;0.50;;
17494;SDS011;8864;51.970;4.614;2023-01-15T06:33:35;3.17;;;0.70;;
17494;SDS011;8864;51.970;4.614;2023-01-15T06:36:03;1.75;;;0.60;;
17494;SDS011;8864;51.970;4.614;2023-01-15T06:38:32;6.60;;;1.25;;
17494;SDS011;8864;51.970;4.614;2023-01-15T06:41:01;5.70;;;1.13;;
17494;SDS011;8864;51.970;4.614;2023-01-15T06:43:29;11.30;;;1.23;;
17494;SDS011;8864;51.970;4.614;2023-01-15T06:46:13;3.00;;;1.20;;
17494;SDS011;8864;51.970;4.614;2023-01-15T06:49:00;4.93;;;1.00;;
17494;SDS011;8864;51.970;4.614;2023-01-15T06:51:28;3.80;;;1.25;;
17494;SDS011;8864;51.970;4.614;2023-01-15T06:54:00;6.22;;;1.42;;
17494;SDS011;8864;51.970;4.614;2023-01-15T06:56:27;4.80;;;0.98;;
17494;SDS011;8864;51.970;4.614;2023-01-15T06:58:54;3.85;;;1.00;;
17494;SDS011;8864;51.970;4.614;2023-01-15T07:01:22;5.03;;;1.38;;
17494;SDS011;8864;51.970;4.614;2023-01-15T07:03:54;9.32;;;0.90;;
17494;SDS011;8864;51.970;4.614;2023-01-15T07:06:22;3.17;;;1.05;;
17494;SDS011;8864;51.970;4.614;2023-01-15T07:08:49;5.20;;;1.15;;
17494;SDS011;8864;51.970;4.614;2023-01-15T07:11:19;6.45;;;1.38;;
17494;SDS011;8864;51.970;4.614;2023-01-15T07:13:47;8.27;;;1.15;;
17494;SDS011;8864;51.970;4.614;2023-01-15T07:16:29;8.15;;;1.63;;
17494;SDS011;8864;51.970;4.614;2023-01-15T07:18:56;12.45;;;1.60;;
17494;SDS011;8864;51.970;4.614;2023-01-15T07:21:23;9.25;;;1.60;;
17494;SDS011;8864;51.970;4.614;2023-01-15T07:23:52;7.10;;;1.42;;
17494;SDS011;8864;51.970;4.614;2023-01-15T07:26:20;6.20;;;1.27;;
17494;SDS011;8864;51.970;4.614;2023-01-15T07:28:47;8.05;;;1.17;;
17494;SDS011;8864;51.970;4.614;2023-01-15T07:31:14;7.28;;;1.30;;
17494;SDS011;8864;51.970;4.614;2023-01-15T07:33:41;6.20;;;1.50;;
17494;SDS011;8864;51.970;4.614;2023-01-15T07:36:11;8.68;;;1.45;;
17494;SDS011;8864;51.970;4.614;2023-01-15T07:38:38;4.75;;;1.08;;
17494;SDS011;8864;51.970;4.614;2023-01-15T07:41:06;6.78;;;1.20;;
17494;SDS011;8864;51.970;4.614;2023-01-15T07:43:51;9.02;;;1.38;;
17494;SDS011;8864;51.970;4.614;2023-01-15T07:46:35;8.93;;;1.70;;
17494;SDS011;8864;51.970;4.614;2023-01-15T07:49:20;9.10;;;1.35;;
17494;SDS011;8864;51.970;4.614;2023-01-15T07:52:05;11.63;;;1.40;;
17494;SDS011;8864;51.970;4.614;2023-01-15T07:54:32;7.50;;;1.38;;
17494;SDS011;8864;51.970;4.614;2023-01-15T07:56:59;15.15;;;1.42;;
17494;SDS011;8864;51.970;4.614;2023-01-15T07:59:28;5.75;;;1.20;;
17494;SDS011;8864;51.970;4.614;2023-01-15T08:01:55;9.00;;;1.20;;
17494;SDS011;8864;51.970;4.614;2023-01-15T08:04:22;7.60;;;1.17;;
17494;SDS011;8864;51.970;4.614;2023-01-15T08:06:51;9.02;;;1.35;;
17494;SDS011;8864;51.970;4.614;2023-01-15T08:09:18;8.80;;;1.30;;
17494;SDS011;8864;51.970;4.614;2023-01-15T08:11:45;8.63;;;1.00;;
17494;SDS011;8864;51.970;4.614;2023-01-15T08:14:31;9.63;;;1.67;;
17494;SDS011;8864;51.970;4.614;2023-01-15T08:17:16;6.20;;;1.75;;
17494;SDS011;8864;51.970;4.614;2023-01-15T08:19:43;8.65;;;1.20;;
17494;SDS011;8864;51.970;4.614;2023-01-15T08:22:11;6.53;;;1.40;;
17494;SDS011;8864;51.970;4.614;2023-01-15T08:24:39;7.90;;;1.38;;
17494;SDS011;8864;51.970;4.614;2023-01-15T08:27:06;8.70;;;1.55;;
17494;SDS011;8864;51.970;4.614;2023-01-15T08:29:36;5.35;;;1.10;;
17494;SDS011;8864;51.970;4.614;2023-01-15T08:32:04;8.98;;;1.45;;
17494;SDS011;8864;51.970;4.614;2023-01-15T08:34:31;7.97;;;1.25;;
17494;SDS011;8864;51.970;4.614;2023-01-15T08:37:01;7.13;;;1.60;;
17494;SDS011;8864;51.970;4.614;2023-01-15T08:39:28;6.45;;;1.52;;
17494;SDS011;8864;51.970;4.614;2023-01-15T08:41:59;12.60;;;1.85;;
17494;SDS011;8864;51.970;4.614;2023-01-15T08:44:27;31.80;;;4.30;;
17494;SDS011;8864;51.970;4.614;2023-01-15T08:46:58;15.85;;;2.78;;
17494;SDS011;8864;51.970;4.614;2023-01-15T08:49:25;14.32;;;2.47;;
17494;SDS011;8864;51.970;4.614;2023-01-15T08:51:53;14.23;;;2.55;;
17494;SDS011;8864;51.970;4.614;2023-01-15T08:54:20;12.23;;;2.30;;
17494;SDS011;8864;51.970;4.614;2023-01-15T08:56:50;18.23;;;2.95;;
17494;SDS011;8864;51.970;4.614;2023-01-15T08:59:17;32.88;;;3.50;;
17494;SDS011;8864;51.970;4.614;2023-01-15T09:01:44;22.67;;;3.20;;
17494;SDS011;8864;51.970;4.614;2023-01-15T09:04:14;15.82;;;2.53;;
17494;SDS011;8864;51.970;4.614;2023-01-15T09:06:43;14.13;;;3.40;;
17494;SDS011;8864;51.970;4.614;2023-01-15T09:09:11;20.48;;;3.38;;
17494;SDS011;8864;51.970;4.614;2023-01-15T09:11:38;17.20;;;3.08;;
17494;SDS011;8864;51.970;4.614;2023-01-15T09:14:05;19.95;;;2.88;;
17494;SDS011;8864;51.970;4.614;2023-01-15T09:16:34;15.85;;;2.97;;
17494;SDS011;8864;51.970;4.614;2023-01-15T09:19:01;19.02;;;3.33;;
17494;SDS011;8864;51.970;4.614;2023-01-15T09:21:30;20.27;;;4.60;;
17494;SDS011;8864;51.970;4.614;2023-01-15T09:23:58;21.83;;;5.40;;
17494;SDS011;8864;51.970;4.614;2023-01-15T09:26:27;19.48;;;4.57;;
17494;SDS011;8864;51.970;4.614;2023-01-15T09:28:56;17.50;;;4.70;;
17494;SDS011;8864;51.970;4.614;2023-01-15T09:31:26;16.83;;;4.20;;
17494;SDS011;8864;51.970;4.614;2023-01-15T09:33:53;20.30;;;4.20;;
17494;SDS011;8864;51.970;4.614;2023-01-15T09:36:22;16.35;;;3.40;;
17494;SDS011;8864;51.970;4.614;2023-01-15T09:38:53;17.42;;;3.25;;
17494;SDS011;8864;51.970;4.614;2023-01-15T09:41:29;9.70;;;2.45;;
17494;SDS011;8864;51.970;4.614;2023-01-15T09:44:31;11.02;;;2.42;;
17494;SDS011;8864;51.970;4.614;2023-01-15T09:47:17;12.93;;;2.33;;
17494;SDS011;8864;51.970;4.614;2023-01-15T09:49:59;10.73;;;2.20;;
17494;SDS011;8864;51.970;4.614;2023-01-15T09:52:43;6.40;;;1.63;;
17494;SDS011;8864;51.970;4.614;2023-01-15T09:55:32;7.78;;;1.65;;
17494;SDS011;8864;51.970;4.614;2023-01-15T09:58:03;9.65;;;2.10;;
17494;SDS011;8864;51.970;4.614;2023-01-15T10:00:36;8.27;;;1.65;;
17494;SDS011;8864;51.970;4.614;2023-01-15T10:03:06;9.32;;;1.65;;
17494;SDS011;8864;51.970;4.614;2023-01-15T10:05:46;9.15;;;1.45;;
17494;SDS011;8864;51.970;4.614;2023-01-15T10:08:20;7.07;;;1.50;;
17494;SDS011;8864;51.970;4.614;2023-01-15T10:10:52;8.45;;;1.88;;
17494;SDS011;8864;51.970;4.614;2023-01-15T10:13:27;11.43;;;1.88;;
17494;SDS011;8864;51.970;4.614;2023-01-15T10:16:10;7.60;;;1.40;;
17494;SDS011;8864;51.970;4.614;2023-01-15T10:18:38;11.10;;;1.77;;
17494;SDS011;8864;51.970;4.614;2023-01-15T10:21:14;9.20;;;1.85;;
17494;SDS011;8864;51.970;4.614;2023-01-15T10:23:55;7.35;;;1.95;;
17494;SDS011;8864;51.970;4.614;2023-01-15T10:26:31;15.82;;;1.83;;
17494;SDS011;8864;51.970;4.614;2023-01-15T10:29:03;11.02;;;1.58;;
17494;SDS011;8864;51.970;4.614;2023-01-15T10:31:43;12.57;;;1.85;;
17494;SDS011;8864;51.970;4.614;2023-01-15T10:34:36;11.13;;;1.58;;
17494;SDS011;8864;51.970;4.614;2023-01-15T10:37:22;9.35;;;1.63;;
17494;SDS011;8864;51.970;4.614;2023-01-15T10:39:57;11.43;;;2.03;;
17494;SDS011;8864;51.970;4.614;2023-01-15T10:42:42;9.15;;;1.50;;
17494;SDS011;8864;51.970;4.614;2023-01-15T10:45:18;10.40;;;1.70;;
17494;SDS011;8864;51.970;4.614;2023-01-15T10:47:50;10.65;;;1.67;;
17494;SDS011;8864;51.970;4.614;2023-01-15T10:50:22;7.78;;;1.42;;
17494;SDS011;8864;51.970;4.614;2023-01-15T10:52:55;6.85;;;1.38;;
17494;SDS011;8864;51.970;4.614;2023-01-15T10:55:31;8.52;;;1.30;;
17494;SDS011;8864;51.970;4.614;2023-01-15T10:58:05;7.43;;;1.20;;
17494;SDS011;8864;51.970;4.614;2023-01-15T11:00:40;6.25;;;1.48;;
17494;SDS011;8864;51.970;4.614;2023-01-15T11:03:12;12.32;;;1.50;;
17494;SDS011;8864;51.970;4.614;2023-01-15T11:05:45;5.10;;;1.40;;
17494;SDS011;8864;51.970;4.614;2023-01-15T11:08:21;5.57;;;1.42;;
17494;SDS011;8864;51.970;4.614;2023-01-15T11:10:52;12.63;;;1.50;;
17494;SDS011;8864;51.970;4.614;2023-01-15T11:13:22;7.30;;;1.52;;
17494;SDS011;8864;51.970;4.614;2023-01-15T11:16:12;8.60;;;1.85;;
17494;SDS011;8864;51.970;4.614;2023-01-15T11:19:03;5.32;;;1.10;;
17494;SDS011;8864;51.970;4.614;2023-01-15T11:21:50;3.17;;;0.98;;
17494;SDS011;8864;51.970;4.614;2023-01-15T11:24:18;7.65;;;1.45;;
17494;SDS011;8864;51.970;4.614;2023-01-15T11:26:47;5.05;;;1.25;;
17494;SDS011;8864;51.970;4.614;2023-01-15T11:29:23;5.47;;;1.35;;
17494;SDS011;8864;51.970;4.614;2023-01-15T11:31:56;5.57;;;1.25;;
17494;SDS011;8864;51.970;4.614;2023-01-15T11:34:24;7.30;;;1.20;;
17494;SDS011;8864;51.970;4.614;2023-01-15T11:37:01;8.57;;;1.30;;
17494;SDS011;8864;51.970;4.614;2023-01-15T11:39:28;3.85;;;1.10;;
17494;SDS011;8864;51.970;4.614;2023-01-15T11:41:59;3.00;;;1.20;;
17494;SDS011;8864;51.970;4.614;2023-01-15T11:44:55;5.63;;;1.20;;
17494;SDS011;8864;51.970;4.614;2023-01-15T11:47:49;3.25;;;1.15;;
17494;SDS011;8864;51.970;4.614;2023-01-15T11:50:34;5.93;;;1.50;;
17494;SDS011;8864;51.970;4.614;2023-01-15T11:53:13;3.97;;;1.15;;
17494;SDS011;8864;51.970;4.614;2023-01-15T11:55:49;5.55;;;1.20;;
17494;SDS011;8864;51.970;4.614;2023-01-15T11:58:20;7.80;;;1.30;;
17494;SDS011;8864;51.970;4.614;2023-01-15T12:00:50;7.53;;;1.60;;
17494;SDS011;8864;51.970;4.614;2023-01-15T12:03:20;8.93;;;1.70;;
17494;SDS011;8864;51.970;4.614;2023-01-15T12:05:53;2.05;;;1.02;;
17494;SDS011;8864;51.970;4.614;2023-01-15T12:08:27;7.43;;;1.55;;
17494;SDS011;8864;51.970;4.614;2023-01-15T12:11:07;5.85;;;1.15;;
17494;SDS011;8864;51.970;4.614;2023-01-15T12:13:55;6.72;;;1.30;;
17494;SDS011;8864;51.970;4.614;2023-01-15T12:16:35;2.58;;;1.08;;
17494;SDS011;8864;51.970;4.614;2023-01-15T12:19:08;5.22;;;1.35;;
17494;SDS011;8864;51.970;4.614;2023-01-15T12:24:54;6.80;;;1.20;;
17494;SDS011;8864;51.970;4.614;2023-01-15T12:27:34;5.78;;;1.30;;
17494;SDS011;8864;51.970;4.614;2023-01-15T12:30:13;4.55;;;1.10;;
17494;SDS011;8864;51.970;4.614;2023-01-15T12:32:49;4.40;;;1.25;;
17494;SDS011;8864;51.970;4.614;2023-01-15T12:35:26;5.00;;;1.40;;
17494;SDS011;8864;51.970;4.614;2023-01-15T12:37:55;5.70;;;1.00;;
17494;SDS011;8864;51.970;4.614;2023-01-15T12:40:28;4.15;;;1.10;;
17494;SDS011;8864;51.970;4.614;2023-01-15T12:43:01;2.65;;;1.00;;
17494;SDS011;8864;51.970;4.614;2023-01-15T12:45:48;4.13;;;1.35;;
17494;SDS011;8864;51.970;4.614;2023-01-15T12:48:20;5.38;;;1.27;;
17494;SDS011;8864;51.970;4.614;2023-01-15T12:50:55;5.05;;;1.10;;
17494;SDS011;8864;51.970;4.614;2023-01-15T12:53:26;2.75;;;1.10;;
17494;SDS011;8864;51.970;4.614;2023-01-15T12:56:00;3.70;;;1.08;;
17494;SDS011;8864;51.970;4.614;2023-01-15T12:58:37;3.20;;;0.98;;
17494;SDS011;8864;51.970;4.614;2023-01-15T13:01:11;4.22;;;1.20;;
17494;SDS011;8864;51.970;4.614;2023-01-15T13:03:50;2.92;;;1.08;;
17494;SDS011;8864;51.970;4.614;2023-01-15T13:06:31;5.93;;;1.70;;
17494;SDS011;8864;51.970;4.614;2023-01-15T13:09:00;3.17;;;1.00;;
17494;SDS011;8864;51.970;4.614;2023-01-15T13:11:31;6.10;;;1.08;;
17494;SDS011;8864;51.970;4.614;2023-01-15T13:13:59;3.95;;;1.10;;
17494;SDS011;8864;51.970;4.614;2023-01-15T13:16:33;2.40;;;0.93;;
17494;SDS011;8864;51.970;4.614;2023-01-15T13:21:58;3.97;;;1.00;;
17494;SDS011;8864;51.970;4.614;2023-01-15T13:27:30;3.72;;;0.90;;
17494;SDS011;8864;51.970;4.614;2023-01-15T13:30:07;7.30;;;1.42;;
17494;SDS011;8864;51.970;4.614;2023-01-15T13:32:46;4.30;;;1.30;;
17494;SDS011;8864;51.970;4.614;2023-01-15T13:35:21;3.38;;;1.10;;
17494;SDS011;8864;51.970;4.614;2023-01-15T13:37:57;4.32;;;1.30;;
17494;SDS011;8864;51.970;4.614;2023-01-15T13:40:27;3.20;;;0.88;;
17494;SDS011;8864;51.970;4.614;2023-01-15T13:42:58;3.90;;;0.90;;
17494;SDS011;8864;51.970;4.614;2023-01-15T13:45:32;2.97;;;0.90;;
17494;SDS011;8864;51.970;4.614;2023-01-15T13:48:03;5.18;;;0.88;;
17494;SDS011;8864;51.970;4.614;2023-01-15T13:50:39;6.50;;;1.35;;
17494;SDS011;8864;51.970;4.614;2023-01-15T13:53:13;2.53;;;1.00;;
17494;SDS011;8864;51.970;4.614;2023-01-15T13:55:48;10.93;;;1.20;;
17494;SDS011;8864;51.970;4.614;2023-01-15T13:58:19;3.25;;;1.02;;
17494;SDS011;8864;51.970;4.614;2023-01-15T14:00:47;3.17;;;0.80;;
17494;SDS011;8864;51.970;4.614;2023-01-15T14:03:25;5.30;;;1.08;;
17494;SDS011;8864;51.970;4.614;2023-01-15T14:05:55;5.75;;;1.05;;
17494;SDS011;8864;51.970;4.614;2023-01-15T14:08:35;6.03;;;1.30;;
17494;SDS011;8864;51.970;4.614;2023-01-15T14:11:03;5.10;;;1.00;;
17494;SDS011;8864;51.970;4.614;2023-01-15T14:16:35;5.25;;;0.88;;
17494;SDS011;8864;51.970;4.614;2023-01-15T14:19:29;4.97;;;1.02;;
17494;SDS011;8864;51.970;4.614;2023-01-15T14:22:31;4.88;;;1.45;;
17494;SDS011;8864;51.970;4.614;2023-01-15T14:28:05;4.32;;;0.98;;
17494;SDS011;8864;51.970;4.614;2023-01-15T14:33:39;2.40;;;0.90;;
17494;SDS011;8864;51.970;4.614;2023-01-15T14:36:19;4.70;;;0.98;;
17494;SDS011;8864;51.970;4.614;2023-01-15T14:38:53;4.38;;;1.00;;
17494;SDS011;8864;51.970;4.614;2023-01-15T14:41:24;5.45;;;1.20;;
17494;SDS011;8864;51.970;4.614;2023-01-15T14:43:53;4.85;;;0.98;;
17494;SDS011;8864;51.970;4.614;2023-01-15T14:46:23;3.47;;;0.90;;
17494;SDS011;8864;51.970;4.614;2023-01-15T14:48:54;2.92;;;0.95;;
17494;SDS011;8864;51.970;4.614;2023-01-15T14:51:24;6.93;;;1.25;;
17494;SDS011;8864;51.970;4.614;2023-01-15T14:53:55;4.18;;;1.00;;
17494;SDS011;8864;51.970;4.614;2023-01-15T14:56:26;5.00;;;1.13;;
17494;SDS011;8864;51.970;4.614;2023-01-15T14:58:58;2.13;;;0.85;;
17494;SDS011;8864;51.970;4.614;2023-01-15T15:01:32;5.32;;;1.05;;
17494;SDS011;8864;51.970;4.614;2023-01-15T15:04:06;2.00;;;0.70;;
17494;SDS011;8864;51.970;4.614;2023-01-15T15:06:46;4.00;;;1.00;;
17494;SDS011;8864;51.970;4.614;2023-01-15T15:09:22;2.72;;;0.85;;
17494;SDS011;8864;51.970;4.614;2023-01-15T15:12:02;5.22;;;0.85;;
17494;SDS011;8864;51.970;4.614;2023-01-15T15:14:49;3.45;;;1.08;;
17494;SDS011;8864;51.970;4.614;2023-01-15T15:17:28;4.68;;;0.90;;
17494;SDS011;8864;51.970;4.614;2023-01-15T15:20:06;4.47;;;1.10;;
17494;SDS011;8864;51.970;4.614;2023-01-15T15:22:48;3.58;;;0.77;;
17494;SDS011;8864;51.970;4.614;2023-01-15T15:25:22;3.20;;;1.00;;
17494;SDS011;8864;51.970;4.614;2023-01-15T15:28:02;4.13;;;0.80;;
17494;SDS011;8864;51.970;4.614;2023-01-15T15:30:31;5.30;;;1.20;;
17494;SDS011;8864;51.970;4.614;2023-01-15T15:33:02;3.67;;;1.10;;
17494;SDS011;8864;51.970;4.614;2023-01-15T15:35:30;4.35;;;1.40;;
17494;SDS011;8864;51.970;4.614;2023-01-15T15:37:59;5.50;;;0.95;;
17494;SDS011;8864;51.970;4.614;2023-01-15T15:40:33;3.10;;;0.90;;
17494;SDS011;8864;51.970;4.614;2023-01-15T15:43:03;4.50;;;1.13;;
17494;SDS011;8864;51.970;4.614;2023-01-15T15:45:55;2.63;;;0.90;;
17494;SDS011;8864;51.970;4.614;2023-01-15T15:48:44;8.15;;;1.35;;
17494;SDS011;8864;51.970;4.614;2023-01-15T15:51:22;3.30;;;1.05;;
17494;SDS011;8864;51.970;4.614;2023-01-15T15:54:03;4.65;;;1.13;;
17494;SDS011;8864;51.970;4.614;2023-01-15T15:56:36;5.50;;;1.30;;
17494;SDS011;8864;51.970;4.614;2023-01-15T15:59:09;4.07;;;1.15;;